createdAt,value
2023-02-25T00:01:41.761Z,15.00
2023-02-25T00:04:11.246Z,14.90
2023-02-25T00:06:38.029Z,14.90
2023-02-25T00:09:06.494Z,14.90
2023-02-25T00:11:33.240Z,15.00
2023-02-25T00:14:00.125Z,15.00
2023-02-25T00:16:27.548Z,15.00
2023-02-25T00:19:01.497Z,15.10
2023-02-25T00:21:29.568Z,15.20
2023-02-25T00:24:00.134Z,15.20
2023-02-25T00:26:31.353Z,15.20
2023-02-25T00:28:58.378Z,15.20
2023-02-25T00:31:25.872Z,15.30
2023-02-25T00:33:53.370Z,15.30
2023-02-25T00:36:23.429Z,15.30
2023-02-25T00:38:52.297Z,15.30
2023-02-25T00:41:34.149Z,15.30
2023-02-25T00:44:05.143Z,15.30
2023-02-25T00:46:32.626Z,15.30
2023-02-25T00:49:00.721Z,15.30
2023-02-25T00:51:33.210Z,15.30
2023-02-25T00:54:00.715Z,15.30
2023-02-25T00:56:28.014Z,15.30
2023-02-25T00:58:55.125Z,15.30
2023-02-25T01:01:25.265Z,15.30
2023-02-25T01:03:55.790Z,15.30
2023-02-25T01:06:24.073Z,15.30
2023-02-25T01:08:51.402Z,15.30
2023-02-25T01:11:24.751Z,15.30
2023-02-25T01:13:51.626Z,15.30
2023-02-25T01:16:21.548Z,15.20
2023-02-25T01:18:51.592Z,15.20
2023-02-25T01:21:27.158Z,15.20
2023-02-25T01:24:01.028Z,15.20
2023-02-25T01:26:30.252Z,15.20
2023-02-25T01:28:57.988Z,15.30
2023-02-25T01:31:29.234Z,15.20
2023-02-25T01:34:00.835Z,15.30
2023-02-25T01:36:29.990Z,15.30
2023-02-25T01:38:56.808Z,15.30
2023-02-25T01:41:25.525Z,15.30
2023-02-25T01:44:21.374Z,15.30
2023-02-25T01:46:53.264Z,15.40
2023-02-25T01:49:37.291Z,15.30
2023-02-25T01:52:15.517Z,15.30
2023-02-25T01:54:45.259Z,15.40
2023-02-25T01:57:15.306Z,15.40
2023-02-25T01:59:43.263Z,15.30
2023-02-25T02:02:13.757Z,15.30
2023-02-25T02:04:42.559Z,15.40
2023-02-25T02:07:10.219Z,15.40
2023-02-25T02:09:38.096Z,15.40
2023-02-25T02:12:07.633Z,15.40
2023-02-25T02:14:38.419Z,15.40
2023-02-25T02:17:24.735Z,15.40
2023-02-25T02:20:13.035Z,15.30
2023-02-25T02:23:03.676Z,15.40
2023-02-25T02:26:07.340Z,15.40
2023-02-25T02:29:12.665Z,15.30
2023-02-25T02:32:02.780Z,15.30
2023-02-25T02:34:47.776Z,15.30
2023-02-25T02:37:25.375Z,15.20
2023-02-25T02:39:58.362Z,15.20
2023-02-25T02:42:31.504Z,15.10
2023-02-25T02:45:03.405Z,15.10
2023-02-25T02:47:58.164Z,15.10
2023-02-25T02:50:57.684Z,15.10
2023-02-25T02:53:34.602Z,15.10
2023-02-25T02:56:05.544Z,15.10
2023-02-25T02:58:41.204Z,15.20
2023-02-25T03:01:14.955Z,15.10
2023-02-25T03:03:46.918Z,15.00
2023-02-25T03:06:21.930Z,15.00
2023-02-25T03:09:00.865Z,15.00
2023-02-25T03:11:27.785Z,15.00
2023-02-25T03:13:55.177Z,15.00
2023-02-25T03:16:28.224Z,15.00
2023-02-25T03:19:08.058Z,15.00
2023-02-25T03:21:54.827Z,15.00
2023-02-25T03:24:26.404Z,15.00
2023-02-25T03:26:53.819Z,15.00
2023-02-25T03:29:23.736Z,14.90
2023-02-25T03:32:10.330Z,15.00
2023-02-25T03:34:40.795Z,15.00
2023-02-25T03:37:25.448Z,15.10
2023-02-25T03:39:57.231Z,15.00
2023-02-25T03:42:29.772Z,15.00
2023-02-25T03:45:00.873Z,15.00
2023-02-25T03:47:30.429Z,15.00
2023-02-25T03:50:22.772Z,15.00
2023-02-25T03:52:50.003Z,15.00
2023-02-25T03:55:18.377Z,14.90
2023-02-25T03:57:48.821Z,14.90
2023-02-25T04:00:29.611Z,14.90
2023-02-25T04:02:57.087Z,14.90
2023-02-25T04:05:27.698Z,14.90
2023-02-25T04:07:56.169Z,14.90
2023-02-25T04:10:23.875Z,14.90
2023-02-25T04:12:51.309Z,14.90
2023-02-25T04:15:19.207Z,14.90
2023-02-25T04:17:45.978Z,14.80
2023-02-25T04:20:14.315Z,14.80
2023-02-25T04:22:41.169Z,14.90
2023-02-25T04:25:08.413Z,14.90
2023-02-25T04:27:35.659Z,14.90
2023-02-25T04:30:02.918Z,14.90
2023-02-25T04:32:29.768Z,14.90
2023-02-25T04:34:57.854Z,14.90
2023-02-25T04:37:24.628Z,14.90
2023-02-25T04:39:51.670Z,14.80
2023-02-25T04:42:18.419Z,14.80
2023-02-25T04:44:45.210Z,14.80
2023-02-25T04:47:12.032Z,14.80
2023-02-25T04:49:45.104Z,14.80
2023-02-25T04:52:13.233Z,14.80
2023-02-25T04:54:40.529Z,14.80
2023-02-25T04:57:08.640Z,14.80
2023-02-25T04:59:35.915Z,14.80
2023-02-25T05:02:02.836Z,14.80
2023-02-25T05:04:30.202Z,14.80
2023-02-25T05:06:57.013Z,14.70
2023-02-25T05:09:24.267Z,14.80
2023-02-25T05:11:51.144Z,14.70
2023-02-25T05:14:18.326Z,14.70
2023-02-25T05:16:45.967Z,14.60
2023-02-25T05:19:24.071Z,14.60
2023-02-25T05:21:52.545Z,14.60
2023-02-25T05:24:19.791Z,14.50
2023-02-25T05:26:46.575Z,14.50
2023-02-25T05:29:13.395Z,14.40
2023-02-25T05:31:40.869Z,14.40
2023-02-25T05:34:07.764Z,14.30
2023-02-25T05:36:34.521Z,14.30
2023-02-25T05:39:02.922Z,14.30
2023-02-25T05:41:30.136Z,14.40
2023-02-25T05:43:58.257Z,14.40
2023-02-25T05:46:26.818Z,14.40
2023-02-25T05:48:54.163Z,14.40
2023-02-25T05:51:23.628Z,14.40
2023-02-25T05:53:52.068Z,14.40
2023-02-25T05:56:22.734Z,14.40
2023-02-25T05:58:49.905Z,14.50
2023-02-25T06:01:20.607Z,14.40
2023-02-25T06:03:49.070Z,14.50
2023-02-25T06:06:17.873Z,14.50
2023-02-25T06:08:44.900Z,14.60
2023-02-25T06:11:16.150Z,14.50
2023-02-25T06:13:42.939Z,14.50
2023-02-25T06:16:09.805Z,14.60
2023-02-25T06:18:37.138Z,14.60
2023-02-25T06:21:07.578Z,14.60
2023-02-25T06:23:35.487Z,14.70
2023-02-25T06:26:04.923Z,14.70
2023-02-25T06:28:32.910Z,14.70
2023-02-25T06:31:00.119Z,14.70
2023-02-25T06:33:29.458Z,14.80
2023-02-25T06:35:56.309Z,14.80
2023-02-25T06:38:23.485Z,14.90
2023-02-25T06:40:51.012Z,14.90
2023-02-25T06:43:18.400Z,14.90
2023-02-25T06:45:45.656Z,15.00
2023-02-25T06:48:12.412Z,15.00
2023-02-25T06:50:40.244Z,15.10
2023-02-25T06:53:08.169Z,15.10
2023-02-25T06:55:35.480Z,15.10
2023-02-25T06:58:02.301Z,15.10
2023-02-25T07:00:29.603Z,15.10
2023-02-25T07:02:56.404Z,15.10
2023-02-25T07:05:23.334Z,15.10
2023-02-25T07:07:50.076Z,15.10
2023-02-25T07:10:17.032Z,15.10
2023-02-25T07:12:43.859Z,15.20
2023-02-25T07:15:10.964Z,15.20
2023-02-25T07:17:38.317Z,15.20
2023-02-25T07:20:05.614Z,15.20
2023-02-25T07:22:32.991Z,15.30
2023-02-25T07:24:59.981Z,15.30
2023-02-25T07:27:27.385Z,15.40
2023-02-25T07:29:55.074Z,15.30
2023-02-25T07:32:24.989Z,15.40
2023-02-25T07:34:52.266Z,15.40
2023-02-25T07:37:19.107Z,15.40
2023-02-25T07:39:47.694Z,15.40
2023-02-25T07:42:14.801Z,15.40
2023-02-25T07:44:41.608Z,15.40
2023-02-25T07:47:08.879Z,15.50
2023-02-25T07:49:35.781Z,15.60
2023-02-25T07:52:02.524Z,15.80
2023-02-25T07:54:29.314Z,15.90
2023-02-25T07:56:56.089Z,16.00
2023-02-25T07:59:23.239Z,16.10
2023-02-25T08:01:50.210Z,16.00
2023-02-25T08:04:20.465Z,16.10
2023-02-25T08:06:47.261Z,16.00
2023-02-25T08:09:14.195Z,16.00
2023-02-25T08:11:41.772Z,15.90
2023-02-25T08:14:08.580Z,15.90
2023-02-25T08:16:35.421Z,15.90
2023-02-25T08:19:02.315Z,15.90
2023-02-25T08:21:30.858Z,16.00
2023-02-25T08:23:58.032Z,16.00
2023-02-25T08:26:27.530Z,16.00
2023-02-25T08:28:57.103Z,16.10
2023-02-25T08:31:24.877Z,16.10
2023-02-25T08:33:52.918Z,16.20
2023-02-25T08:36:23.314Z,16.30
2023-02-25T08:38:51.786Z,16.30
2023-02-25T08:41:20.914Z,16.30
2023-02-25T08:43:54.737Z,16.40
2023-02-25T08:46:27.242Z,16.40
2023-02-25T08:48:54.947Z,16.50
2023-02-25T08:51:24.807Z,16.40
2023-02-25T08:53:52.319Z,16.50
2023-02-25T08:56:20.143Z,16.50
2023-02-25T08:58:46.964Z,16.40
2023-02-25T09:01:16.953Z,16.40
2023-02-25T09:03:52.811Z,16.50
2023-02-25T09:06:26.586Z,16.50
2023-02-25T09:08:55.185Z,16.60
2023-02-25T09:11:23.279Z,16.50
2023-02-25T09:13:50.246Z,16.50
2023-02-25T09:16:17.594Z,16.50
2023-02-25T09:18:46.651Z,16.40
2023-02-25T09:21:14.731Z,16.50
2023-02-25T09:23:42.354Z,16.60
2023-02-25T09:26:12.098Z,16.70
2023-02-25T09:28:38.978Z,16.70
2023-02-25T09:31:06.358Z,16.80
2023-02-25T09:33:35.888Z,16.90
2023-02-25T09:36:08.495Z,16.80
2023-02-25T09:38:36.924Z,16.90
2023-02-25T09:41:14.805Z,16.90
2023-02-25T09:43:45.991Z,17.00
2023-02-25T09:46:16.162Z,17.20
2023-02-25T09:49:27.617Z,17.20
2023-02-25T09:52:01.184Z,17.10
2023-02-25T09:54:34.419Z,17.10
2023-02-25T09:57:17.866Z,17.00
2023-02-25T09:59:46.560Z,17.00
2023-02-25T10:02:13.755Z,17.10
2023-02-25T10:04:55.180Z,17.20
2023-02-25T10:07:35.053Z,17.30
2023-02-25T10:10:11.184Z,17.40
2023-02-25T10:12:49.958Z,17.60
2023-02-25T10:15:23.162Z,17.70
2023-02-25T10:18:01.060Z,17.70
2023-02-25T10:20:52.429Z,17.70
2023-02-25T10:23:25.144Z,17.70
2023-02-25T10:26:03.480Z,17.80
2023-02-25T10:28:32.462Z,17.90
2023-02-25T10:31:05.655Z,17.80
2023-02-25T10:33:37.023Z,17.90
2023-02-25T10:36:17.401Z,17.90
2023-02-25T10:38:50.147Z,17.90
2023-02-25T10:41:17.229Z,18.00
2023-02-25T10:43:45.362Z,18.20
2023-02-25T10:46:18.177Z,18.40
2023-02-25T10:48:54.046Z,18.60
2023-02-25T10:51:20.952Z,18.70
2023-02-25T10:53:56.615Z,18.70
2023-02-25T10:56:27.019Z,18.50
2023-02-25T10:59:21.761Z,18.60
2023-02-25T11:01:49.503Z,18.70
2023-02-25T11:04:20.829Z,18.80
2023-02-25T11:06:48.673Z,18.80
2023-02-25T11:09:18.807Z,18.80
2023-02-25T11:12:10.952Z,18.80
2023-02-25T11:14:39.699Z,18.90
2023-02-25T11:17:15.360Z,18.70
2023-02-25T11:19:49.888Z,18.70
2023-02-25T11:22:18.749Z,18.50
2023-02-25T11:24:55.379Z,18.40
2023-02-25T11:27:39.820Z,18.40
2023-02-25T11:30:12.631Z,18.40
2023-02-25T11:33:25.755Z,18.30
2023-02-25T11:36:00.581Z,18.20
2023-02-25T11:38:42.069Z,18.10
2023-02-25T11:41:23.126Z,18.00
2023-02-25T11:43:50.645Z,17.90
2023-02-25T11:46:24.648Z,17.90
2023-02-25T11:49:02.113Z,17.90
2023-02-25T11:51:40.988Z,17.90
2023-02-25T11:54:28.983Z,17.90
2023-02-25T11:57:06.153Z,18.00
2023-02-25T11:59:42.724Z,18.00
2023-02-25T12:02:40.566Z,18.10
2023-02-25T12:05:29.432Z,17.90
2023-02-25T12:08:32.992Z,17.90
2023-02-25T12:11:29.765Z,17.80
2023-02-25T12:14:44.950Z,17.70
2023-02-25T12:17:18.363Z,17.70
2023-02-25T12:20:26.370Z,17.70
2023-02-25T12:23:21.904Z,17.80
2023-02-25T12:26:00.117Z,17.60
2023-02-25T12:28:49.825Z,17.80
2023-02-25T12:31:40.971Z,17.90
2023-02-25T12:34:40.372Z,17.80
2023-02-25T12:37:46.796Z,17.80
2023-02-25T12:40:44.882Z,17.70
2023-02-25T12:43:31.698Z,17.60
2023-02-25T12:46:16.748Z,17.60
2023-02-25T12:49:02.298Z,17.50
2023-02-25T12:51:35.393Z,17.50
2023-02-25T12:54:21.406Z,17.40
2023-02-25T12:57:09.613Z,17.30
2023-02-25T12:59:51.598Z,17.40
2023-02-25T13:02:40.276Z,17.20
2023-02-25T13:05:16.218Z,17.20
2023-02-25T13:07:59.524Z,17.20
2023-02-25T13:10:53.488Z,17.20
2023-02-25T13:13:59.069Z,17.20
2023-02-25T13:16:41.225Z,17.10
2023-02-25T13:19:34.745Z,17.10
2023-02-25T13:22:20.296Z,17.00
2023-02-25T13:24:56.923Z,17.00
2023-02-25T13:27:59.264Z,17.00
2023-02-25T13:30:58.751Z,16.90
2023-02-25T13:33:48.740Z,16.80
2023-02-25T13:36:43.930Z,16.80
2023-02-25T13:39:22.750Z,16.70
2023-02-25T13:42:27.502Z,16.60
2023-02-25T13:45:12.370Z,16.70
2023-02-25T13:48:17.284Z,16.60
2023-02-25T13:51:00.334Z,16.50
2023-02-25T13:53:57.957Z,16.50
2023-02-25T13:56:37.757Z,16.40
2023-02-25T13:59:34.791Z,16.30
2023-02-25T14:02:04.727Z,16.20
2023-02-25T14:04:49.609Z,16.10
2023-02-25T14:07:29.998Z,15.90
2023-02-25T14:10:12.103Z,15.70
2023-02-25T14:13:12.584Z,15.50
2023-02-25T14:16:17.838Z,15.40
2023-02-25T14:18:53.278Z,15.20
2023-02-25T14:21:37.328Z,15.10
2023-02-25T14:24:22.086Z,15.00
2023-02-25T14:27:13.168Z,14.80
2023-02-25T14:30:19.603Z,14.70
2023-02-25T14:33:23.331Z,14.60
2023-02-25T14:36:32.352Z,14.40
2023-02-25T14:39:21.871Z,14.20
2023-02-25T14:42:11.641Z,14.20
2023-02-25T14:44:53.521Z,14.10
2023-02-25T14:47:28.410Z,13.80
2023-02-25T14:49:57.254Z,13.50
2023-02-25T14:52:56.711Z,13.10
2023-02-25T14:55:44.879Z,12.80
2023-02-25T14:58:33.508Z,12.30
2023-02-25T15:01:39.480Z,12.00
2023-02-25T15:04:35.823Z,11.80
2023-02-25T15:07:21.100Z,11.40
2023-02-25T15:10:25.315Z,11.30
2023-02-25T15:13:04.157Z,11.20
2023-02-25T15:15:52.742Z,11.10
2023-02-25T15:18:42.208Z,10.80
2023-02-25T15:21:37.252Z,10.60
2023-02-25T15:24:11.793Z,10.40
2023-02-25T15:26:41.992Z,10.20
2023-02-25T15:29:43.918Z,10.30
2023-02-25T15:32:18.916Z,10.20
2023-02-25T15:34:58.403Z,10.10
2023-02-25T15:37:30.275Z,10.20
2023-02-25T15:40:01.780Z,10.10
2023-02-25T15:42:54.183Z,10.10
2023-02-25T15:45:27.765Z,10.00
2023-02-25T15:48:07.097Z,10.00
2023-02-25T15:50:46.914Z,10.00
2023-02-25T15:53:25.502Z,10.00
2023-02-25T15:56:13.402Z,10.00
2023-02-25T15:58:50.583Z,10.00
2023-02-25T16:01:37.978Z,10.00
2023-02-25T16:04:40.397Z,9.90
2023-02-25T16:07:08.499Z,9.90
2023-02-25T16:09:43.327Z,9.90
2023-02-25T16:12:16.592Z,9.90
2023-02-25T16:14:44.739Z,9.90
2023-02-25T16:17:14.805Z,11.10
2023-02-25T16:19:44.387Z,9.90
2023-02-25T16:22:28.500Z,10.00
2023-02-25T16:24:59.156Z,10.00
2023-02-25T16:28:15.615Z,9.90
2023-02-25T16:30:54.147Z,9.80
2023-02-25T16:33:35.586Z,9.80
2023-02-25T16:36:34.875Z,9.80
2023-02-25T16:39:16.032Z,9.80
2023-02-25T16:41:43.257Z,9.80
2023-02-25T16:44:19.399Z,9.70
2023-02-25T16:46:52.218Z,9.60
2023-02-25T16:49:34.766Z,9.60
2023-02-25T16:52:01.713Z,9.40
2023-02-25T16:54:33.754Z,9.40
2023-02-25T16:57:03.169Z,9.50
2023-02-25T16:59:38.504Z,9.40
2023-02-25T17:02:17.725Z,9.50
2023-02-25T17:04:49.974Z,9.30
2023-02-25T17:07:24.424Z,9.30
2023-02-25T17:10:00.896Z,9.40
2023-02-25T17:12:36.957Z,9.40
2023-02-25T17:15:23.294Z,9.30
2023-02-25T17:18:02.221Z,9.30
2023-02-25T17:20:29.510Z,7.90
2023-02-25T17:22:59.791Z,9.00
2023-02-25T17:25:34.240Z,8.80
2023-02-25T17:28:01.349Z,9.00
2023-02-25T17:30:46.222Z,8.80
2023-02-25T17:33:29.042Z,8.90
2023-02-25T17:36:05.106Z,8.90
2023-02-25T17:38:32.253Z,9.00
2023-02-25T17:40:59.704Z,9.00
2023-02-25T17:43:33.564Z,9.00
2023-02-25T17:46:03.637Z,9.00
2023-02-25T17:48:35.273Z,9.00
2023-02-25T17:51:08.015Z,8.90
2023-02-25T17:53:50.839Z,9.10
2023-02-25T17:56:29.500Z,8.90
2023-02-25T17:59:04.781Z,8.90
2023-02-25T18:01:53.354Z,8.80
2023-02-25T18:04:25.595Z,8.90
2023-02-25T18:06:55.376Z,8.80
2023-02-25T18:09:48.511Z,8.70
2023-02-25T18:12:26.242Z,8.80
2023-02-25T18:15:00.561Z,8.80
2023-02-25T18:17:34.387Z,8.80
2023-02-25T18:20:04.906Z,8.70
2023-02-25T18:22:48.448Z,8.80
2023-02-25T18:25:32.562Z,8.90
2023-02-25T18:27:59.495Z,8.70
2023-02-25T18:30:29.604Z,8.60
2023-02-25T18:32:59.870Z,8.70
2023-02-25T18:35:29.524Z,8.70
2023-02-25T18:37:57.817Z,8.70
2023-02-25T18:40:30.320Z,8.70
2023-02-25T18:42:58.209Z,8.60
2023-02-25T18:45:27.121Z,8.60
2023-02-25T18:47:54.721Z,8.60
2023-02-25T18:50:21.587Z,8.60
2023-02-25T18:52:49.117Z,8.60
2023-02-25T18:55:26.313Z,8.60
2023-02-25T18:57:53.726Z,8.50
2023-02-25T19:00:23.289Z,8.30
2023-02-25T19:02:58.017Z,8.20
2023-02-25T19:05:26.387Z,8.20
2023-02-25T19:07:53.700Z,8.10
2023-02-25T19:10:30.485Z,8.20
2023-02-25T19:13:16.898Z,8.30
2023-02-25T19:15:43.863Z,8.30
2023-02-25T19:18:15.347Z,8.30
2023-02-25T19:20:44.013Z,8.40
2023-02-25T19:23:15.003Z,8.30
2023-02-25T19:25:44.664Z,8.40
2023-02-25T19:28:12.103Z,8.40
2023-02-25T19:30:42.339Z,8.40
2023-02-25T19:33:11.547Z,8.30
2023-02-25T19:35:41.104Z,8.00
2023-02-25T19:38:11.371Z,8.20
2023-02-25T19:40:38.420Z,8.30
2023-02-25T19:43:05.819Z,8.40
2023-02-25T19:45:33.888Z,8.40
2023-02-25T19:48:01.000Z,8.30
2023-02-25T19:50:31.327Z,8.10
2023-02-25T19:52:58.431Z,8.10
2023-02-25T19:55:25.311Z,8.20
2023-02-25T19:57:52.872Z,8.10
2023-02-25T20:00:22.694Z,8.20
2023-02-25T20:02:53.111Z,8.10
2023-02-25T20:05:24.093Z,8.00
2023-02-25T20:08:05.038Z,7.90
2023-02-25T20:10:41.182Z,7.20
2023-02-25T20:13:31.506Z,6.70
2023-02-25T20:16:03.368Z,7.40
2023-02-25T20:18:36.001Z,7.40
2023-02-25T20:21:04.215Z,7.40
2023-02-25T20:23:31.267Z,7.50
2023-02-25T20:29:11.049Z,7.20
2023-02-25T20:31:37.962Z,7.00
2023-02-25T20:34:05.883Z,7.00
2023-02-25T20:36:48.035Z,6.80
2023-02-25T20:39:39.154Z,6.70
2023-02-25T20:42:11.870Z,6.50
2023-02-25T20:44:39.582Z,6.60
2023-02-25T20:47:07.172Z,6.60
2023-02-25T20:49:36.450Z,6.70
2023-02-25T20:52:04.020Z,6.70
2023-02-25T20:54:30.853Z,6.60
2023-02-25T20:56:57.657Z,6.40
2023-02-25T20:59:27.529Z,6.40
2023-02-25T21:01:57.866Z,6.40
2023-02-25T21:04:24.764Z,6.10
2023-02-25T21:06:51.582Z,6.40
2023-02-25T21:09:18.893Z,6.20
2023-02-25T21:11:45.851Z,6.30
2023-02-25T21:14:12.663Z,6.30
2023-02-25T21:16:39.933Z,6.20
2023-02-25T21:19:07.711Z,6.30
2023-02-25T21:21:38.379Z,6.30
2023-02-25T21:24:07.989Z,6.30
2023-02-25T21:26:39.260Z,6.20
2023-02-25T21:29:07.220Z,6.10
2023-02-25T21:31:34.823Z,6.20
2023-02-25T21:34:02.596Z,6.00
2023-02-25T21:36:29.989Z,5.90
2023-02-25T21:38:56.881Z,5.80
2023-02-25T21:41:26.642Z,5.60
2023-02-25T21:43:53.871Z,5.80
2023-02-25T21:46:21.232Z,5.70
2023-02-25T21:48:50.557Z,5.60
2023-02-25T21:51:21.632Z,5.50
2023-02-25T21:53:55.252Z,5.30
2023-02-25T21:56:23.680Z,5.30
2023-02-25T21:58:59.828Z,5.20
2023-02-25T22:01:36.542Z,5.30
2023-02-25T22:04:04.306Z,5.40
2023-02-25T22:06:31.884Z,5.40
2023-02-25T22:09:00.255Z,5.50
2023-02-25T22:11:30.088Z,5.40
2023-02-25T22:13:59.088Z,5.40
2023-02-25T22:16:27.784Z,5.40
2023-02-25T22:18:55.543Z,5.50
2023-02-25T22:21:28.337Z,5.40
2023-02-25T22:23:57.938Z,5.40
2023-02-25T22:26:27.804Z,5.40
2023-02-25T22:28:57.366Z,5.20
2023-02-25T22:31:25.340Z,5.30
2023-02-25T22:33:52.897Z,5.30
2023-02-25T22:36:20.446Z,5.40
2023-02-25T22:38:48.805Z,5.40
2023-02-25T22:41:29.538Z,5.30
2023-02-25T22:44:00.965Z,5.20
2023-02-25T22:46:38.252Z,5.10
2023-02-25T22:49:06.822Z,5.20
2023-02-25T22:51:42.173Z,5.20
2023-02-25T22:54:15.709Z,5.20
2023-02-25T22:56:43.703Z,5.30
2023-02-25T22:59:11.594Z,5.30
2023-02-25T23:01:41.390Z,5.00
2023-02-25T23:04:08.606Z,5.10
2023-02-25T23:06:43.530Z,5.00
2023-02-25T23:09:12.360Z,5.00
2023-02-25T23:11:41.814Z,4.90
2023-02-25T23:14:08.973Z,4.90
2023-02-25T23:16:40.438Z,4.90
2023-02-25T23:19:18.344Z,5.10
2023-02-25T23:21:45.635Z,5.30
2023-02-25T23:24:16.550Z,5.20
2023-02-25T23:26:45.130Z,5.20
2023-02-25T23:29:12.977Z,5.10
2023-02-25T23:31:46.078Z,5.10
2023-02-25T23:34:17.496Z,5.10
2023-02-25T23:36:45.145Z,5.00
2023-02-25T23:39:14.221Z,5.20
2023-02-25T23:41:41.270Z,5.40
2023-02-25T23:44:09.191Z,5.30
2023-02-25T23:46:36.499Z,5.40
2023-02-25T23:49:06.680Z,5.20
2023-02-25T23:51:34.045Z,5.20
2023-02-25T23:54:04.066Z,5.20
2023-02-25T23:56:47.709Z,5.30
2023-02-25T23:59:14.822Z,5.40
